Terminal Aerodrome Forecast
Issued by NWS

Home | Current Version | Previous Version | Text Only | Print | Product List | Glossary On
Versions: 1 2 3 4 5 6 7 8 9 10 11 12 13
000
FTUS45 KRIW 301130
TAFLND
TAF
KLND 301130Z 3012/3112 VRB06KT P6SM BKN100
     FM301500 VRB04KT P6SM SCT100
     FM302100 32010KT P6SM VCSH SCT080
     FM310300 36012KT P6SM SCT050 BKN100
     FM310600 29005KT P6SM BKN040=

USA.gov is the U.S. government's official web portal to all federal, state and local government web resources and services.